Reno, NV (89501)

12:34 AM PDT on August 29, 2016 (GMT -0700)
UNR Campus, LMR Roof | | Change Station
Active Advisory: Fire Weather Watch

Elev 4570 ft 39.54 °N, 119.81 °W | Updated 18 seconds ago

Clear
Clear
68.6 °F
Feels Like 68.6 °F
N
0.0
Wind Variable Wind from East

Today
High -- | Low -- °F
--% Chance of Precip.
Yesterday
High -- | Low -- °F
Precip. -- in
Pressure 30.05 in
Visibility 10.0 miles
Clouds Clear
Dew Point 31 °F
Humidity 24%
Rainfall 0.00 in
Snow Depth Not available.
6:25 AM 7:33 PM
Waning Crescent, 10% visible
METAR KRNO 290655Z 00000KT 10SM CLR 21/M01 A3021 RMK AO2 SLP176 T02061006
Pressure 30.05 in
Visibility 10.0 miles
Clouds Clear
Dew Point 31 °F
Humidity 24%
Rainfall 0.00 in
Snow Depth Not available.
6:25 AM 7:33 PM
Waning Crescent, 10% visible
METAR KRNO 290655Z 00000KT 10SM CLR 21/M01 A3021 RMK AO2 SLP176 T02061006

10-Day Weather Forecast

Almanac

Astronomy

Aug. 29, 2016 Rise Set
Actual Time
Civil Twilight
Nautical Twilight
Astronomical Twilight
Moon
Length of Visible Light
Length of Day
Tomorrow will be .
, % of the Moon is Illuminated

Today's Extremes

State Highs State Lows

Community

WunderPhotos

Upload Photos

1,935,800 photos uploaded!

WunderBlog® & News

Nearby

Air Quality

  Air Quality AQ Index Pollutant
Not available.

Snow Depth

Station Depth Elevation

Earthquake Activity

City Distance Mag. Time & Date
Minimum magnitude displayed is 2.5.

Coastal Water Temperatures

Place Temperature

Stations

Nearby Weather Stations

Station Location Temp. Windchill Dew Point Humidity Wind Precip. Elev Updated Type
                   

Watches & Warnings

Fire Weather Watch
Issued: 11:51 AM PDT Aug. 28, 2016 – National Weather Service

... Fire Weather Watch in effect from Tuesday afternoon through
Tuesday evening for gusty winds and low humidity for along the
Sierra front from Douglas County to the Oregon border...

The National Weather Service in Reno has issued a Fire Weather
Watch for gusty winds and low humidity, which is in effect from
Tuesday afternoon through Tuesday evening.

* Affected area... fire zone 270 Surprise Valley California, fire
zone 278 eastern Lassen County, fire zone 450 western Nevada
Sierra front and fire zone 458 northern Washoe County.

* Winds... southwest to west 10 to 20 mph with gusts up to 35 mph.

* Humidity... afternoon humidty will bottom out at 7 to 15%.

* Impacts... the combination of gusty winds and low humidity can
cause fire to rapidly grow in size and intensity before first
responders can contain them.

Precautionary/preparedness actions...

Avoid outdoor activities that can cause a spark near dry
vegetation, such as yard work, target shooting, or campfires.
Follow local fire restrictions. Check weather.Gov/Reno for
updates and livingwithfire.Info for preparedness tips.



Http://weather.Gov/Reno